VOZ1495 YBBN-YBHM
Flight info
| Callsign | VOZ1495 |
|---|---|
| Flight time | 1h 23m |
| Altitude | 38000 |
| Route | BIXAD2/01L BIXAD Q67 OVRON |
| Aircraft | B738/M-SAE3DGHIM1RWZ/LB1 |
Departure
| Time | 2026-04-18 05:55 |
|---|---|
| Airport | Brisbane International Airport (YBBN) |
Arrival
| Time | 2026-04-18 07:18 |
|---|---|
| Airport | Hamilton Island Airport (YBHM) |
| Time | Latitude | Longitude | Altitude | Speed | Heading |
|---|---|---|---|---|---|
| 2026-04-18 05:29 | -27.38879 | 153.11917 | 17 ft | 0 kts | 9° |
| 2026-04-18 05:44 | -27.38879 | 153.11916 | 17 ft | 1 kts | 9° |
| 2026-04-18 05:44 | -27.38899 | 153.11916 | 17 ft | 3 kts | 355° |
| 2026-04-18 05:44 | -27.38919 | 153.11916 | 18 ft | 3 kts | 18° |
| 2026-04-18 05:44 | -27.38933 | 153.11907 | 17 ft | 3 kts | 84° |
| 2026-04-18 05:45 | -27.38930 | 153.11883 | 18 ft | 3 kts | 114° |
| 2026-04-18 05:45 | -27.38923 | 153.11869 | 19 ft | 0 kts | 117° |
| 2026-04-18 05:47 | -27.38924 | 153.11869 | -11 ft | 0 kts | 117° |
| 2026-04-18 05:47 | -27.38932 | 153.11891 | 18 ft | 6 kts | 105° |
| 2026-04-18 05:48 | -27.38956 | 153.11955 | 17 ft | 12 kts | 118° |
| 2026-04-18 05:48 | -27.39015 | 153.12055 | 17 ft | 18 kts | 127° |
| 2026-04-18 05:48 | -27.39017 | 153.12177 | 17 ft | 18 kts | 31° |
| 2026-04-18 05:48 | -27.38906 | 153.12241 | 17 ft | 18 kts | 27° |
| 2026-04-18 05:49 | -27.38781 | 153.12312 | 17 ft | 22 kts | 28° |
| 2026-04-18 05:49 | -27.38630 | 153.12399 | 19 ft | 27 kts | 27° |
| 2026-04-18 05:49 | -27.38454 | 153.12501 | 18 ft | 30 kts | 26° |
| 2026-04-18 05:49 | -27.38263 | 153.12609 | 17 ft | 31 kts | 27° |
| 2026-04-18 05:50 | -27.38078 | 153.12714 | 18 ft | 28 kts | 27° |
| 2026-04-18 05:50 | -27.37950 | 153.12755 | 17 ft | 17 kts | 322° |
| 2026-04-18 05:50 | -27.37891 | 153.12635 | 17 ft | 19 kts | 297° |
| 2026-04-18 05:50 | -27.37825 | 153.12490 | 17 ft | 23 kts | 297° |
| 2026-04-18 05:51 | -27.37745 | 153.12318 | 17 ft | 27 kts | 298° |
| 2026-04-18 05:51 | -27.37656 | 153.12123 | 18 ft | 29 kts | 296° |
| 2026-04-18 05:51 | -27.37566 | 153.11925 | 17 ft | 27 kts | 297° |
| 2026-04-18 05:51 | -27.37482 | 153.11742 | 17 ft | 25 kts | 298° |
| 2026-04-18 05:52 | -27.37410 | 153.11577 | 17 ft | 19 kts | 286° |
| 2026-04-18 05:52 | -27.37484 | 153.11479 | 17 ft | 19 kts | 205° |
| 2026-04-18 05:52 | -27.37612 | 153.11405 | 17 ft | 22 kts | 207° |
| 2026-04-18 05:52 | -27.37757 | 153.11323 | 17 ft | 25 kts | 207° |
| 2026-04-18 05:53 | -27.37887 | 153.11234 | 17 ft | 14 kts | 250° |
| 2026-04-18 05:53 | -27.37854 | 153.11129 | 17 ft | 16 kts | 297° |
| 2026-04-18 05:53 | -27.37781 | 153.11017 | 18 ft | 20 kts | 340° |
| 2026-04-18 05:53 | -27.37521 | 153.11126 | 18 ft | 73 kts | 30° |
| 2026-04-18 05:54 | -27.36866 | 153.11506 | 18 ft | 133 kts | 26° |
| 2026-04-18 05:54 | -27.35973 | 153.12028 | 67 ft | 151 kts | 27° |
| 2026-04-18 05:54 | -27.35001 | 153.12540 | 282 ft | 155 kts | 29° |
| 2026-04-18 05:54 | -27.34035 | 153.13077 | 559 ft | 159 kts | 31° |
| 2026-04-18 05:55 | -27.33038 | 153.13653 | 726 ft | 170 kts | 33° |
| 2026-04-18 05:55 | -27.31999 | 153.14253 | 1072 ft | 166 kts | 32° |
| 2026-04-18 05:55 | -27.30907 | 153.14885 | 1545 ft | 175 kts | 34° |
| 2026-04-18 05:55 | -27.29864 | 153.15483 | 2466 ft | 170 kts | 33° |
| 2026-04-18 05:56 | -27.28780 | 153.16110 | 3089 ft | 181 kts | 30° |
| 2026-04-18 05:56 | -27.27634 | 153.16768 | 3648 ft | 197 kts | 27° |
| 2026-04-18 05:56 | -27.26315 | 153.17524 | 3901 ft | 226 kts | 26° |
| 2026-04-18 05:56 | -27.24827 | 153.18373 | 4085 ft | 253 kts | 26° |
| 2026-04-18 05:57 | -27.21415 | 153.20316 | 5023 ft | 289 kts | 25° |
| 2026-04-18 05:57 | -27.19627 | 153.21331 | 5900 ft | 289 kts | 23° |
| 2026-04-18 05:57 | -27.17726 | 153.22033 | 6679 ft | 288 kts | 4° |
| 2026-04-18 05:58 | -27.15727 | 153.22267 | 7432 ft | 291 kts | 1° |
| 2026-04-18 05:58 | -27.13693 | 153.22485 | 8139 ft | 297 kts | 1° |
| 2026-04-18 05:58 | -27.11615 | 153.22724 | 8892 ft | 302 kts | 1° |
| 2026-04-18 05:58 | -27.09507 | 153.22986 | 9614 ft | 309 kts | 2° |
| 2026-04-18 05:59 | -27.07348 | 153.23265 | 10266 ft | 316 kts | 2° |
| 2026-04-18 05:59 | -27.05096 | 153.23558 | 10539 ft | 338 kts | 2° |
| 2026-04-18 05:59 | -27.02713 | 153.23868 | 10992 ft | 349 kts | 2° |
| 2026-04-18 05:59 | -27.00281 | 153.24047 | 11713 ft | 350 kts | 358° |
| 2026-04-18 06:00 | -26.97846 | 153.24091 | 12518 ft | 350 kts | 356° |
| 2026-04-18 06:00 | -26.95436 | 153.24105 | 13286 ft | 353 kts | 356° |
| 2026-04-18 06:00 | -26.92968 | 153.24123 | 14048 ft | 356 kts | 357° |
| 2026-04-18 06:00 | -26.90481 | 153.24152 | 14742 ft | 359 kts | 356° |
| 2026-04-18 06:01 | -26.87973 | 153.24193 | 15469 ft | 362 kts | 356° |
| 2026-04-18 06:01 | -26.85440 | 153.24241 | 16203 ft | 365 kts | 356° |
| 2026-04-18 06:01 | -26.82885 | 153.24293 | 16896 ft | 369 kts | 356° |
| 2026-04-18 06:01 | -26.80317 | 153.24349 | 17655 ft | 371 kts | 355° |
| 2026-04-18 06:02 | -26.77724 | 153.24407 | 18348 ft | 375 kts | 355° |
| 2026-04-18 06:02 | -26.75103 | 153.24463 | 18941 ft | 378 kts | 355° |
| 2026-04-18 06:02 | -26.72461 | 153.24519 | 19547 ft | 381 kts | 354° |
| 2026-04-18 06:02 | -26.69799 | 153.24563 | 20143 ft | 383 kts | 352° |
| 2026-04-18 06:03 | -26.67215 | 153.24095 | 20732 ft | 373 kts | 335° |
| 2026-04-18 06:03 | -26.64747 | 153.23212 | 21370 ft | 373 kts | 334° |
| 2026-04-18 06:03 | -26.62267 | 153.22305 | 21968 ft | 376 kts | 334° |
| 2026-04-18 06:03 | -26.59769 | 153.21401 | 22561 ft | 379 kts | 334° |
| 2026-04-18 06:04 | -26.57248 | 153.20504 | 23148 ft | 382 kts | 334° |
| 2026-04-18 06:04 | -26.54704 | 153.19613 | 23681 ft | 384 kts | 333° |
| 2026-04-18 06:04 | -26.52151 | 153.18728 | 24202 ft | 385 kts | 333° |
| 2026-04-18 06:04 | -26.49587 | 153.17842 | 24676 ft | 387 kts | 333° |
| 2026-04-18 06:05 | -26.47007 | 153.16953 | 25123 ft | 389 kts | 333° |
| 2026-04-18 06:05 | -26.44410 | 153.16059 | 25573 ft | 392 kts | 332° |
| 2026-04-18 06:05 | -26.41796 | 153.15161 | 26011 ft | 394 kts | 332° |
| 2026-04-18 06:05 | -26.39170 | 153.14260 | 26451 ft | 396 kts | 332° |
| 2026-04-18 06:06 | -26.37426 | 153.13662 | 26740 ft | 397 kts | 332° |
| 2026-04-18 06:06 | -26.33880 | 153.12445 | 27290 ft | 399 kts | 332° |
| 2026-04-18 06:06 | -26.31220 | 153.11531 | 27719 ft | 401 kts | 331° |
| 2026-04-18 06:06 | -26.28604 | 153.10485 | 28040 ft | 396 kts | 324° |
| 2026-04-18 06:07 | -26.26981 | 153.09582 | 28263 ft | 391 kts | 319° |
| 2026-04-18 06:07 | -26.24753 | 153.07910 | 28599 ft | 384 kts | 313° |
| 2026-04-18 06:07 | -26.22615 | 153.06123 | 28966 ft | 386 kts | 312° |
| 2026-04-18 06:07 | -26.20461 | 153.04324 | 29322 ft | 388 kts | 312° |
| 2026-04-18 06:08 | -26.18291 | 153.02531 | 29720 ft | 389 kts | 313° |
| 2026-04-18 06:08 | -26.16108 | 153.00741 | 30078 ft | 391 kts | 313° |
| 2026-04-18 06:08 | -26.13910 | 152.98945 | 30353 ft | 393 kts | 313° |
| 2026-04-18 06:08 | -26.11704 | 152.97144 | 30634 ft | 394 kts | 313° |
| 2026-04-18 06:09 | -26.09489 | 152.95343 | 30941 ft | 395 kts | 313° |
| 2026-04-18 06:09 | -26.07261 | 152.93545 | 31239 ft | 396 kts | 313° |
| 2026-04-18 06:09 | -26.05028 | 152.91750 | 31510 ft | 397 kts | 313° |
| 2026-04-18 06:09 | -26.02786 | 152.89950 | 31777 ft | 398 kts | 313° |
| 2026-04-18 06:10 | -26.00538 | 152.88148 | 32063 ft | 399 kts | 313° |
| 2026-04-18 06:10 | -25.98286 | 152.86341 | 32300 ft | 401 kts | 313° |
| 2026-04-18 06:10 | -25.96021 | 152.84525 | 32552 ft | 402 kts | 313° |
| 2026-04-18 06:10 | -25.93755 | 152.82711 | 32884 ft | 401 kts | 313° |
| 2026-04-18 06:11 | -25.91493 | 152.80902 | 33083 ft | 402 kts | 313° |
| 2026-04-18 06:11 | -25.89220 | 152.79081 | 33307 ft | 403 kts | 313° |
| 2026-04-18 06:11 | -25.86946 | 152.77262 | 33685 ft | 401 kts | 313° |
| 2026-04-18 06:11 | -25.84690 | 152.75462 | 34106 ft | 398 kts | 313° |
| 2026-04-18 06:12 | -25.82451 | 152.73676 | 34420 ft | 396 kts | 313° |
| 2026-04-18 06:12 | -25.80210 | 152.71885 | 34621 ft | 397 kts | 313° |
| 2026-04-18 06:12 | -25.77995 | 152.70113 | 34817 ft | 399 kts | 313° |
| 2026-04-18 06:12 | -25.75748 | 152.68317 | 35077 ft | 398 kts | 313° |
| 2026-04-18 06:13 | -25.73502 | 152.66526 | 35361 ft | 397 kts | 313° |
| 2026-04-18 06:13 | -25.71261 | 152.64739 | 35584 ft | 397 kts | 313° |
| 2026-04-18 06:13 | -25.69016 | 152.62948 | 35793 ft | 398 kts | 313° |
| 2026-04-18 06:13 | -25.66768 | 152.61157 | 36027 ft | 398 kts | 313° |
| 2026-04-18 06:14 | -25.64522 | 152.59368 | 36285 ft | 397 kts | 313° |
| 2026-04-18 06:14 | -25.62277 | 152.57582 | 36526 ft | 397 kts | 313° |
| 2026-04-18 06:14 | -25.60034 | 152.55796 | 36709 ft | 397 kts | 313° |
| 2026-04-18 06:14 | -25.57781 | 152.54002 | 36851 ft | 400 kts | 313° |
| 2026-04-18 06:15 | -25.55524 | 152.52207 | 37041 ft | 400 kts | 313° |
| 2026-04-18 06:15 | -25.53260 | 152.50408 | 37186 ft | 402 kts | 313° |
| 2026-04-18 06:15 | -25.50988 | 152.48604 | 37400 ft | 402 kts | 313° |
| 2026-04-18 06:15 | -25.48720 | 152.46805 | 37653 ft | 401 kts | 313° |
| 2026-04-18 06:16 | -25.46453 | 152.45009 | 37859 ft | 401 kts | 313° |
| 2026-04-18 06:16 | -25.44182 | 152.43207 | 37965 ft | 403 kts | 313° |
| 2026-04-18 06:16 | -25.41899 | 152.41395 | 37987 ft | 406 kts | 313° |
| 2026-04-18 06:17 | -25.37308 | 152.37758 | 37970 ft | 405 kts | 313° |
| 2026-04-18 06:17 | -25.32741 | 152.34151 | 37981 ft | 402 kts | 313° |
| 2026-04-18 06:18 | -25.28211 | 152.30571 | 37981 ft | 399 kts | 313° |
| 2026-04-18 06:18 | -25.23733 | 152.27035 | 37969 ft | 398 kts | 313° |
| 2026-04-18 06:19 | -25.19229 | 152.23478 | 37976 ft | 398 kts | 313° |
| 2026-04-18 06:19 | -25.14714 | 152.19917 | 37976 ft | 400 kts | 313° |
| 2026-04-18 06:20 | -25.10172 | 152.16341 | 37969 ft | 402 kts | 313° |
| 2026-04-18 06:20 | -25.05605 | 152.12748 | 37971 ft | 404 kts | 313° |
| 2026-04-18 06:21 | -25.01013 | 152.09138 | 37967 ft | 406 kts | 313° |
| 2026-04-18 06:21 | -24.96400 | 152.05517 | 37970 ft | 408 kts | 313° |
| 2026-04-18 06:22 | -24.91768 | 152.01889 | 37971 ft | 409 kts | 313° |
| 2026-04-18 06:22 | -24.87126 | 151.98260 | 37970 ft | 409 kts | 313° |
| 2026-04-18 06:23 | -24.82484 | 151.94635 | 37970 ft | 409 kts | 313° |
| 2026-04-18 06:23 | -24.77849 | 151.91020 | 37976 ft | 408 kts | 313° |
| 2026-04-18 06:24 | -24.73226 | 151.87414 | 37970 ft | 407 kts | 313° |
| 2026-04-18 06:24 | -24.68616 | 151.83822 | 37967 ft | 405 kts | 313° |
| 2026-04-18 06:25 | -24.64024 | 151.80248 | 37969 ft | 404 kts | 313° |
| 2026-04-18 06:25 | -24.59476 | 151.76712 | 37965 ft | 402 kts | 313° |
| 2026-04-18 06:26 | -24.54907 | 151.73162 | 37971 ft | 402 kts | 313° |
| 2026-04-18 06:26 | -24.50342 | 151.69616 | 37976 ft | 402 kts | 313° |
| 2026-04-18 06:27 | -24.45771 | 151.66070 | 37978 ft | 403 kts | 313° |
| 2026-04-18 06:27 | -24.41188 | 151.62518 | 37968 ft | 404 kts | 314° |
| 2026-04-18 06:28 | -24.36592 | 151.58958 | 37979 ft | 405 kts | 314° |
| 2026-04-18 06:28 | -24.31984 | 151.55394 | 37980 ft | 406 kts | 314° |
| 2026-04-18 06:29 | -24.27362 | 151.51822 | 37958 ft | 407 kts | 314° |
| 2026-04-18 06:29 | -24.22735 | 151.48251 | 37976 ft | 407 kts | 314° |
| 2026-04-18 06:30 | -24.18096 | 151.44674 | 37972 ft | 408 kts | 313° |
| 2026-04-18 06:30 | -24.13425 | 151.41125 | 37984 ft | 409 kts | 314° |
| 2026-04-18 06:31 | -24.08786 | 151.37521 | 37982 ft | 409 kts | 314° |
| 2026-04-18 06:31 | -24.04132 | 151.33924 | 37988 ft | 410 kts | 314° |
| 2026-04-18 06:32 | -23.99466 | 151.30337 | 37979 ft | 410 kts | 314° |
| 2026-04-18 06:32 | -23.94829 | 151.26780 | 37940 ft | 409 kts | 314° |
| 2026-04-18 06:33 | -23.90175 | 151.23212 | 37930 ft | 409 kts | 314° |
| 2026-04-18 06:33 | -23.85487 | 151.19689 | 37934 ft | 413 kts | 317° |
| 2026-04-18 06:34 | -23.80536 | 151.16459 | 37937 ft | 416 kts | 319° |
| 2026-04-18 06:34 | -23.75533 | 151.13292 | 37950 ft | 416 kts | 319° |
| 2026-04-18 06:35 | -23.70533 | 151.10113 | 37952 ft | 416 kts | 319° |
| 2026-04-18 06:35 | -23.65542 | 151.06922 | 37966 ft | 416 kts | 319° |
| 2026-04-18 06:36 | -23.60550 | 151.03724 | 37963 ft | 416 kts | 319° |
| 2026-04-18 06:36 | -23.55561 | 151.00530 | 37974 ft | 416 kts | 319° |
| 2026-04-18 06:37 | -23.50560 | 150.97330 | 37981 ft | 417 kts | 319° |
| 2026-04-18 06:37 | -23.45552 | 150.94128 | 37979 ft | 418 kts | 319° |
| 2026-04-18 06:38 | -23.40534 | 150.90924 | 37983 ft | 418 kts | 319° |
| 2026-04-18 06:38 | -23.35505 | 150.87716 | 37985 ft | 419 kts | 319° |
| 2026-04-18 06:39 | -23.30473 | 150.84509 | 37951 ft | 419 kts | 319° |
| 2026-04-18 06:39 | -23.25440 | 150.81305 | 37974 ft | 419 kts | 319° |
| 2026-04-18 06:40 | -23.20404 | 150.78100 | 37975 ft | 420 kts | 319° |
| 2026-04-18 06:40 | -23.15363 | 150.74896 | 37978 ft | 420 kts | 319° |
| 2026-04-18 06:41 | -23.10316 | 150.71690 | 37975 ft | 420 kts | 319° |
| 2026-04-18 06:41 | -23.05265 | 150.68485 | 37981 ft | 421 kts | 319° |
| 2026-04-18 06:42 | -23.00236 | 150.65296 | 37975 ft | 421 kts | 319° |
| 2026-04-18 06:42 | -22.95175 | 150.62091 | 37971 ft | 421 kts | 320° |
| 2026-04-18 06:43 | -22.90115 | 150.58885 | 37976 ft | 422 kts | 320° |
| 2026-04-18 06:43 | -22.85035 | 150.55677 | 37988 ft | 423 kts | 320° |
| 2026-04-18 06:44 | -22.79941 | 150.52456 | 37977 ft | 424 kts | 320° |
| 2026-04-18 06:44 | -22.74839 | 150.49236 | 37982 ft | 425 kts | 320° |
| 2026-04-18 06:45 | -22.69735 | 150.46017 | 37985 ft | 425 kts | 320° |
| 2026-04-18 06:45 | -22.64627 | 150.42801 | 37961 ft | 424 kts | 320° |
| 2026-04-18 06:46 | -22.59524 | 150.39589 | 37980 ft | 424 kts | 320° |
| 2026-04-18 06:46 | -22.54425 | 150.36381 | 37986 ft | 424 kts | 320° |
| 2026-04-18 06:47 | -22.49318 | 150.33174 | 37986 ft | 424 kts | 320° |
| 2026-04-18 06:47 | -22.44209 | 150.29964 | 37984 ft | 425 kts | 320° |
| 2026-04-18 06:48 | -22.39091 | 150.26753 | 37990 ft | 426 kts | 320° |
| 2026-04-18 06:48 | -22.33961 | 150.23539 | 37986 ft | 426 kts | 320° |
| 2026-04-18 06:49 | -22.28825 | 150.20325 | 37981 ft | 427 kts | 321° |
| 2026-04-18 06:49 | -22.23711 | 150.17080 | 37975 ft | 426 kts | 320° |
| 2026-04-18 06:50 | -22.18654 | 150.13759 | 37984 ft | 426 kts | 320° |
| 2026-04-18 06:50 | -22.13593 | 150.10428 | 37988 ft | 426 kts | 320° |
| 2026-04-18 06:51 | -22.08519 | 150.07106 | 37991 ft | 427 kts | 320° |
| 2026-04-18 06:51 | -22.03436 | 150.03789 | 37989 ft | 427 kts | 320° |
| 2026-04-18 06:52 | -21.98346 | 150.00474 | 37974 ft | 427 kts | 320° |
| 2026-04-18 06:52 | -21.95799 | 149.98815 | 37744 ft | 431 kts | 320° |
| 2026-04-18 06:52 | -21.93256 | 149.97156 | 37270 ft | 432 kts | 320° |
| 2026-04-18 06:52 | -21.90691 | 149.95489 | 36706 ft | 430 kts | 320° |
| 2026-04-18 06:53 | -21.88120 | 149.93817 | 35943 ft | 434 kts | 321° |
| 2026-04-18 06:53 | -21.85534 | 149.92135 | 35256 ft | 435 kts | 321° |
| 2026-04-18 06:53 | -21.82938 | 149.90447 | 34600 ft | 436 kts | 321° |
| 2026-04-18 06:53 | -21.80332 | 149.88754 | 33908 ft | 438 kts | 321° |
| 2026-04-18 06:54 | -21.77716 | 149.87055 | 33134 ft | 440 kts | 322° |
| 2026-04-18 06:54 | -21.75094 | 149.85354 | 32426 ft | 440 kts | 322° |
| 2026-04-18 06:54 | -21.72484 | 149.83664 | 31933 ft | 436 kts | 322° |
| 2026-04-18 06:54 | -21.69896 | 149.81990 | 31414 ft | 432 kts | 322° |
| 2026-04-18 06:55 | -21.67332 | 149.80332 | 30915 ft | 428 kts | 322° |
| 2026-04-18 06:55 | -21.64789 | 149.78685 | 30399 ft | 425 kts | 322° |
| 2026-04-18 06:55 | -21.63116 | 149.77602 | 30067 ft | 423 kts | 322° |
| 2026-04-18 06:55 | -21.60599 | 149.75973 | 29491 ft | 420 kts | 322° |
| 2026-04-18 06:56 | -21.58111 | 149.74364 | 28955 ft | 416 kts | 322° |
| 2026-04-18 06:56 | -21.54817 | 149.72234 | 28263 ft | 410 kts | 322° |
| 2026-04-18 06:56 | -21.53205 | 149.71192 | 27933 ft | 407 kts | 323° |
| 2026-04-18 06:56 | -21.50793 | 149.69634 | 27438 ft | 403 kts | 323° |
| 2026-04-18 06:57 | -21.48405 | 149.68091 | 26951 ft | 399 kts | 323° |
| 2026-04-18 06:57 | -21.43691 | 149.65047 | 25990 ft | 392 kts | 323° |
| 2026-04-18 06:57 | -21.41369 | 149.63548 | 25519 ft | 388 kts | 323° |
| 2026-04-18 06:58 | -21.39062 | 149.62060 | 25041 ft | 385 kts | 323° |
| 2026-04-18 06:58 | -21.36773 | 149.60583 | 24559 ft | 383 kts | 323° |
| 2026-04-18 06:58 | -21.34498 | 149.59117 | 24060 ft | 381 kts | 324° |
| 2026-04-18 06:58 | -21.32227 | 149.57653 | 23591 ft | 380 kts | 324° |
| 2026-04-18 06:59 | -21.29967 | 149.56196 | 23038 ft | 378 kts | 324° |
| 2026-04-18 06:59 | -21.27721 | 149.54750 | 22545 ft | 375 kts | 324° |
| 2026-04-18 06:59 | -21.25491 | 149.53315 | 22066 ft | 372 kts | 324° |
| 2026-04-18 06:59 | -21.23276 | 149.51890 | 21599 ft | 370 kts | 324° |
| 2026-04-18 07:00 | -21.21081 | 149.50479 | 21143 ft | 367 kts | 323° |
| 2026-04-18 07:00 | -21.18900 | 149.49073 | 20686 ft | 365 kts | 324° |
| 2026-04-18 07:00 | -21.16733 | 149.47680 | 20244 ft | 362 kts | 324° |
| 2026-04-18 07:00 | -21.14572 | 149.46293 | 19796 ft | 361 kts | 323° |
| 2026-04-18 07:01 | -21.12424 | 149.44914 | 19327 ft | 360 kts | 323° |
| 2026-04-18 07:01 | -21.10281 | 149.43538 | 18878 ft | 359 kts | 323° |
| 2026-04-18 07:01 | -21.08140 | 149.42164 | 18427 ft | 358 kts | 323° |
| 2026-04-18 07:01 | -21.06006 | 149.40794 | 17933 ft | 357 kts | 323° |
| 2026-04-18 07:02 | -21.03905 | 149.39447 | 17467 ft | 355 kts | 323° |
| 2026-04-18 07:02 | -21.01794 | 149.38095 | 17007 ft | 353 kts | 325° |
| 2026-04-18 07:02 | -20.99700 | 149.36755 | 16581 ft | 349 kts | 325° |
| 2026-04-18 07:02 | -20.97622 | 149.35423 | 16140 ft | 347 kts | 325° |
| 2026-04-18 07:03 | -20.95558 | 149.34100 | 15716 ft | 344 kts | 325° |
| 2026-04-18 07:03 | -20.93508 | 149.32787 | 15293 ft | 342 kts | 325° |
| 2026-04-18 07:03 | -20.91469 | 149.31481 | 14869 ft | 341 kts | 325° |
| 2026-04-18 07:03 | -20.89440 | 149.30182 | 14454 ft | 339 kts | 325° |
| 2026-04-18 07:04 | -20.87416 | 149.28887 | 14027 ft | 339 kts | 325° |
| 2026-04-18 07:04 | -20.85395 | 149.27594 | 13569 ft | 338 kts | 325° |
| 2026-04-18 07:04 | -20.83381 | 149.26306 | 13130 ft | 336 kts | 325° |
| 2026-04-18 07:04 | -20.81377 | 149.25025 | 12704 ft | 335 kts | 325° |
| 2026-04-18 07:05 | -20.79386 | 149.23753 | 12290 ft | 333 kts | 326° |
| 2026-04-18 07:05 | -20.77406 | 149.22489 | 11884 ft | 331 kts | 326° |
| 2026-04-18 07:05 | -20.75436 | 149.21231 | 11482 ft | 329 kts | 326° |
| 2026-04-18 07:05 | -20.73478 | 149.19982 | 11083 ft | 327 kts | 326° |
| 2026-04-18 07:06 | -20.71526 | 149.18736 | 10690 ft | 326 kts | 326° |
| 2026-04-18 07:06 | -20.69592 | 149.17503 | 10439 ft | 320 kts | 326° |
| 2026-04-18 07:06 | -20.67711 | 149.16305 | 10295 ft | 310 kts | 327° |
| 2026-04-18 07:06 | -20.65884 | 149.15145 | 10153 ft | 301 kts | 327° |
| 2026-04-18 07:07 | -20.64112 | 149.14016 | 10026 ft | 292 kts | 326° |
| 2026-04-18 07:07 | -20.62375 | 149.12909 | 9737 ft | 291 kts | 327° |
| 2026-04-18 07:07 | -20.60643 | 149.11805 | 9421 ft | 289 kts | 327° |
| 2026-04-18 07:07 | -20.58924 | 149.10709 | 9122 ft | 287 kts | 327° |
| 2026-04-18 07:08 | -20.57209 | 149.09617 | 8804 ft | 286 kts | 327° |
| 2026-04-18 07:08 | -20.55528 | 149.08546 | 8514 ft | 285 kts | 327° |
| 2026-04-18 07:08 | -20.53831 | 149.07467 | 8220 ft | 284 kts | 327° |
| 2026-04-18 07:08 | -20.52138 | 149.06390 | 7920 ft | 283 kts | 328° |
| 2026-04-18 07:09 | -20.50449 | 149.05316 | 7628 ft | 282 kts | 328° |
| 2026-04-18 07:09 | -20.48764 | 149.04245 | 7329 ft | 282 kts | 328° |
| 2026-04-18 07:09 | -20.47079 | 149.03174 | 7030 ft | 282 kts | 328° |
| 2026-04-18 07:09 | -20.45395 | 149.02105 | 6729 ft | 281 kts | 328° |
| 2026-04-18 07:10 | -20.43721 | 149.01043 | 6536 ft | 277 kts | 329° |
| 2026-04-18 07:10 | -20.42085 | 149.00005 | 6395 ft | 270 kts | 329° |
| 2026-04-18 07:10 | -20.40491 | 148.98993 | 6263 ft | 263 kts | 329° |
| 2026-04-18 07:10 | -20.38937 | 148.98007 | 6143 ft | 256 kts | 329° |
| 2026-04-18 07:11 | -20.37428 | 148.97049 | 6031 ft | 249 kts | 329° |
| 2026-04-18 07:11 | -20.35956 | 148.96130 | 5919 ft | 241 kts | 334° |
| 2026-04-18 07:11 | -20.34349 | 148.95797 | 5702 ft | 236 kts | 8° |
| 2026-04-18 07:11 | -20.32771 | 148.96136 | 5497 ft | 229 kts | 15° |
| 2026-04-18 07:12 | -20.31224 | 148.96526 | 5211 ft | 227 kts | 15° |
| 2026-04-18 07:12 | -20.29700 | 148.96910 | 4936 ft | 223 kts | 16° |
| 2026-04-18 07:12 | -20.28208 | 148.97281 | 4677 ft | 218 kts | 15° |
| 2026-04-18 07:12 | -20.26744 | 148.97632 | 4377 ft | 214 kts | 12° |
| 2026-04-18 07:13 | -20.25272 | 148.97649 | 4126 ft | 213 kts | 348° |
| 2026-04-18 07:13 | -20.23957 | 148.96990 | 3848 ft | 207 kts | 322° |
| 2026-04-18 07:13 | -20.23022 | 148.95908 | 3653 ft | 192 kts | 303° |
| 2026-04-18 07:13 | -20.22439 | 148.94681 | 3398 ft | 182 kts | 287° |
| 2026-04-18 07:14 | -20.22213 | 148.93404 | 3175 ft | 172 kts | 268° |
| 2026-04-18 07:14 | -20.22342 | 148.92168 | 2970 ft | 166 kts | 251° |
| 2026-04-18 07:14 | -20.22775 | 148.91037 | 2786 ft | 164 kts | 236° |
| 2026-04-18 07:14 | -20.23462 | 148.90066 | 2556 ft | 166 kts | 221° |
| 2026-04-18 07:15 | -20.24384 | 148.89328 | 2247 ft | 160 kts | 204° |
| 2026-04-18 07:15 | -20.25381 | 148.88915 | 2140 ft | 150 kts | 191° |
| 2026-04-18 07:15 | -20.26438 | 148.88780 | 1988 ft | 156 kts | 177° |
| 2026-04-18 07:15 | -20.27486 | 148.88934 | 1808 ft | 149 kts | 162° |
| 2026-04-18 07:16 | -20.28408 | 148.89393 | 1635 ft | 144 kts | 147° |
| 2026-04-18 07:16 | -20.29256 | 148.89979 | 1443 ft | 146 kts | 143° |
| 2026-04-18 07:16 | -20.30070 | 148.90614 | 1266 ft | 144 kts | 142° |
| 2026-04-18 07:16 | -20.30864 | 148.91255 | 1040 ft | 144 kts | 141° |
| 2026-04-18 07:17 | -20.31673 | 148.91903 | 893 ft | 146 kts | 141° |
| 2026-04-18 07:17 | -20.32490 | 148.92556 | 689 ft | 148 kts | 142° |
| 2026-04-18 07:17 | -20.33317 | 148.93209 | 545 ft | 148 kts | 141° |
| 2026-04-18 07:17 | -20.34136 | 148.93866 | 318 ft | 147 kts | 139° |
| 2026-04-18 07:18 | -20.34943 | 148.94520 | 109 ft | 145 kts | 140° |
| 2026-04-18 07:18 | -20.35711 | 148.95144 | 26 ft | 121 kts | 145° |
| 2026-04-18 07:18 | -20.36182 | 148.95516 | 20 ft | 37 kts | 142° |
| 2026-04-18 07:18 | -20.36360 | 148.95641 | 22 ft | 12 kts | 182° |
| 2026-04-18 07:19 | -20.36408 | 148.95652 | 21 ft | 5 kts | 104° |
| 2026-04-18 07:19 | -20.36380 | 148.95667 | 22 ft | 5 kts | 340° |
| 2026-04-18 07:19 | -20.36346 | 148.95644 | 22 ft | 7 kts | 322° |
| 2026-04-18 07:19 | -20.36284 | 148.95594 | 21 ft | 16 kts | 320° |
| 2026-04-18 07:20 | -20.36166 | 148.95500 | 21 ft | 25 kts | 324° |
| 2026-04-18 07:20 | -20.36025 | 148.95387 | 19 ft | 25 kts | 323° |
| 2026-04-18 07:20 | -20.35892 | 148.95281 | 21 ft | 23 kts | 323° |
| 2026-04-18 07:20 | -20.35767 | 148.95180 | 22 ft | 22 kts | 323° |
| 2026-04-18 07:21 | -20.35644 | 148.95082 | 25 ft | 22 kts | 322° |
| 2026-04-18 07:21 | -20.35532 | 148.94993 | 22 ft | 15 kts | 323° |
| 2026-04-18 07:21 | -20.35456 | 148.94932 | 22 ft | 12 kts | 328° |
| 2026-04-18 07:21 | -20.35397 | 148.94949 | 20 ft | 7 kts | 58° |
| 2026-04-18 07:22 | -20.35378 | 148.94979 | 22 ft | 0 kts | 54° |
| 2026-04-18 07:23 | -20.35377 | 148.94981 | 19 ft | 1 kts | 54° |
| 2026-04-18 07:23 | -20.35361 | 148.94996 | 21 ft | 5 kts | 31° |
| 2026-04-18 07:23 | -20.35315 | 148.94989 | 19 ft | 9 kts | 324° |
| 2026-04-18 07:24 | -20.35262 | 148.94960 | 19 ft | 6 kts | 0° |
| 2026-04-18 07:24 | -20.35244 | 148.94966 | 19 ft | 2 kts | 22° |
| 2026-04-18 07:24 | -20.35242 | 148.94978 | 19 ft | 2 kts | 106° |
| 2026-04-18 07:24 | -20.35252 | 148.94989 | 19 ft | 2 kts | 142° |
| 2026-04-18 07:25 | -20.35253 | 148.94990 | 19 ft | 0 kts | 142° |